Ana Sayfa
METAR-TAF:

METAR-TAF

Havaalanları :

İskiri, Yunanistan

Enlem: 38-58-03N, Boylam: 024-29-14E, yükseklik: 13 m

METAR: eksik

Saat: 14:52 (11:52 UTC)

Tahmin

Rapor saat 11:00 UTC de 52 dakika önce yapıldı.
Ayın 06'si saat 12 UTC'den ayın 06'si saat 21 UTC'ye kadar geçerli Tahmin
Rüzgar kuzey/kuzeybatıdan 17 kt
Görüş mesafesi 10 km veya daha fazla
2000 ft yükseklikte parçalı bulutlu
Geçici
ayın 06'si saat 12 UTC'den ayın 06'si saat 15 UTC'ye kadar
2000 ft yükseklikte parçalı çok bulutlu
Olasılık 30% :
Geçici
ayın 06'si saat 12 UTC'den ayın 06'si saat 15 UTC'ye kadar
Görüş mesafesi: 5000 m
1800 ft yükseklikte az bulutlu, Kümülonimbus.
2000 ft yükseklikte parçalı çok bulutlu
sağanak yağmurlar

TAF: LGSY 061100Z 0612/0621 34017KT 9999 SCT020 TEMPO 0612/0615 BKN020 PROB30 TEMPO 0612/0615 5000 SHRA FEW018CB BKN020

4.000'den fazla havaalanı için hava durumu gözlemleri ve tahminleri (METAR ve TAF raporları).

Kullanılabilir istasyonlar harita üzerinde sarı ve kırmızı noktalarla gösterilir.

İstasyonun adını görmek için fareyi noktanın üzerinde gezdirin.

Sonrasında hava gözlem ve tahminlerini görmek için tıklayın.

Haritayı değiştirmek için: yaklaştırmak için siyah artı işaretli yeşil düğmeye ve uzaklaştırmak için de eksi işaretli düğmeye hızla tıklayın; bitişik haritalar için yeşil okları kullanın.


METAR-TAF: